This is the latest recevied weather packets stored in our database for station/object DL9GJ-6. If no packets are shown the sender has not sent any weather packets the latest 10 day(s).
| Time | Temp. | Humidity | Pressure | Rain* | Wind** | Luminosity | Snow |
|---|---|---|---|---|---|---|---|
| 1777761132 | 9.44° C | 78% | 1016 hPa | 0 mm | - | 0 W/m² | - |
| 1777760782 | 9.44° C | 77% | 1016.1 hPa | 0 mm | - | 0 W/m² | - |
| 1777760773 | 9.44° C | 77% | 1016.1 hPa | 0 mm | - | 0 W/m² | - |
| 1777760422 | 9.44° C | 76% | 1016.1 hPa | 0 mm | - | 0 W/m² | - |
| 1777760408 | 9.44° C | 76% | 1016.1 hPa | 0 mm | - | 0 W/m² | - |
| 1777760063 | 9.44° C | 76% | 1016 hPa | 0 mm | - | 0 W/m² | - |
| 1777759691 | 9.44° C | 77% | 1015.9 hPa | 0 mm | - | 0 W/m² | - |
| 1777758968 | 10° C | 76% | 1016 hPa | 0 mm | - | 0 W/m² | - |
| 1777758622 | 10° C | 76% | 1016 hPa | 0 mm | - | 0 W/m² | - |
| 1777758610 | 10° C | 76% | 1016 hPa | 0 mm | - | 0 W/m² | - |
| 1777758263 | 10.56° C | 74% | 1016.1 hPa | 0 mm | - | 0 W/m² | - |
| 1777758248 | 10.56° C | 74% | 1016.1 hPa | 0 mm | - | 0 W/m² | - |
| 1777757903 | 10.56° C | 73% | 1016 hPa | 0 mm | - | 0 W/m² | - |
| 1777757543 | 10.56° C | 73% | 1016.1 hPa | 0 mm | - | 0 W/m² | - |
| 1777757531 | 10.56° C | 73% | 1016.1 hPa | 0 mm | - | 0 W/m² | - |
| 1777757183 | 11.11° C | 74% | 1016.1 hPa | 0 mm | - | 0 W/m² | - |
| 1777757171 | 11.11° C | 74% | 1016.1 hPa | 0 mm | - | 0 W/m² | - |
| 1777756822 | 11.11° C | 73% | 1016.1 hPa | 0 mm | - | 0 W/m² | - |
| 1777756810 | 11.11° C | 73% | 1016.1 hPa | 0 mm | - | 0 W/m² | - |
| 1777754370 | 12.22° C | 69% | 1016.3 hPa | 0 mm | - | 0 W/m² | - |
| 1777753929 | 12.22° C | 68% | 1016.3 hPa | 0 mm | - | 0 W/m² | - |
| 1777753569 | 12.22° C | 68% | 1016.4 hPa | 0 mm | - | 0 W/m² | - |
| 1777752930 | 12.78° C | 67% | 1016.4 hPa | 0 mm | - | 0 W/m² | - |
| 1777752569 | 13.33° C | 65% | 1016.5 hPa | 0 mm | - | 0 W/m² | - |
| 1777751850 | 13.89° C | 62% | 1016.5 hPa | 0 mm | - | 0 W/m² | - |
* Rain latest hour (hover to see other rain measurements)
** Current wind speed in m/s (hover to see current wind gust speed)